sensor_id;sensor_type;location;lat;lon;timestamp;pressure;altitude;pressure_sealevel;temperature;humidity
1480;BME280;732;51.698;4.886;2023-04-26T00:00:11;102103.69;;;-0.19;72.11
1480;BME280;732;51.698;4.886;2023-04-26T00:02:39;102116.22;;;-0.07;72.89
1480;BME280;732;51.698;4.886;2023-04-26T00:05:09;102084.53;;;-0.23;72.34
1480;BME280;732;51.698;4.886;2023-04-26T00:07:38;102112.75;;;-0.07;72.30
1480;BME280;732;51.698;4.886;2023-04-26T00:10:08;102094.31;;;-0.25;72.73
1480;BME280;732;51.698;4.886;2023-04-26T00:12:37;102083.47;;;-0.36;73.07
1480;BME280;732;51.698;4.886;2023-04-26T00:15:08;102118.72;;;-0.21;73.29
1480;BME280;732;51.698;4.886;2023-04-26T00:17:36;102123.75;;;-0.17;72.77
1480;BME280;732;51.698;4.886;2023-04-26T00:20:06;102065.03;;;-0.54;72.51
1480;BME280;732;51.698;4.886;2023-04-26T00:22:37;102122.94;;;-0.17;71.91
1480;BME280;732;51.698;4.886;2023-04-26T00:25:06;102123.94;;;-0.20;72.70
1480;BME280;732;51.698;4.886;2023-04-26T00:27:34;102103.25;;;-0.45;73.36
1480;BME280;732;51.698;4.886;2023-04-26T00:30:06;102106.25;;;-0.35;73.15
1480;BME280;732;51.698;4.886;2023-04-26T00:32:35;102102.19;;;-0.41;72.43
1480;BME280;732;51.698;4.886;2023-04-26T00:35:06;102116.59;;;-0.48;73.10
1480;BME280;732;51.698;4.886;2023-04-26T00:37:35;102132.09;;;-0.42;73.43
1480;BME280;732;51.698;4.886;2023-04-26T00:40:05;102131.50;;;-0.47;73.60
1480;BME280;732;51.698;4.886;2023-04-26T00:42:33;102130.16;;;-0.38;73.08
1480;BME280;732;51.698;4.886;2023-04-26T00:45:04;102126.75;;;-0.40;73.65
1480;BME280;732;51.698;4.886;2023-04-26T00:47:33;102113.03;;;-0.47;73.28
1480;BME280;732;51.698;4.886;2023-04-26T00:50:03;102124.72;;;-0.35;73.46
1480;BME280;732;51.698;4.886;2023-04-26T00:52:31;102100.69;;;-0.47;73.38
1480;BME280;732;51.698;4.886;2023-04-26T00:55:00;102116.19;;;-0.40;72.67
1480;BME280;732;51.698;4.886;2023-04-26T00:57:28;102117.91;;;-0.39;73.73
1480;BME280;732;51.698;4.886;2023-04-26T00:59:56;102081.94;;;-0.58;73.43
1480;BME280;732;51.698;4.886;2023-04-26T01:02:26;102116.06;;;-0.37;73.30
1480;BME280;732;51.698;4.886;2023-04-26T01:04:55;102111.72;;;-0.38;72.71
1480;BME280;732;51.698;4.886;2023-04-26T01:07:23;102065.16;;;-0.90;74.06
1480;BME280;732;51.698;4.886;2023-04-26T01:09:55;102119.25;;;-0.66;74.78
1480;BME280;732;51.698;4.886;2023-04-26T01:12:27;102116.31;;;-0.60;74.65
1480;BME280;732;51.698;4.886;2023-04-26T01:14:58;102086.91;;;-0.87;75.37
1480;BME280;732;51.698;4.886;2023-04-26T01:17:28;102115.19;;;-0.55;74.72
1480;BME280;732;51.698;4.886;2023-04-26T01:19:57;102115.59;;;-0.63;74.49
1480;BME280;732;51.698;4.886;2023-04-26T01:22:26;102120.09;;;-0.65;74.21
1480;BME280;732;51.698;4.886;2023-04-26T01:24:56;102125.13;;;-0.61;74.73
1480;BME280;732;51.698;4.886;2023-04-26T01:27:25;102125.59;;;-0.52;74.22
1480;BME280;732;51.698;4.886;2023-04-26T01:29:53;102127.28;;;-0.51;73.96
1480;BME280;732;51.698;4.886;2023-04-26T01:32:22;102123.50;;;-0.63;73.92
1480;BME280;732;51.698;4.886;2023-04-26T01:34:50;102119.69;;;-0.75;73.90
1480;BME280;732;51.698;4.886;2023-04-26T01:37:18;102101.63;;;-0.83;73.60
1480;BME280;732;51.698;4.886;2023-04-26T01:39:47;102128.38;;;-0.73;73.62
1480;BME280;732;51.698;4.886;2023-04-26T01:42:16;102118.38;;;-0.84;74.40
1480;BME280;732;51.698;4.886;2023-04-26T01:44:45;102128.47;;;-0.74;75.15
1480;BME280;732;51.698;4.886;2023-04-26T01:47:13;102105.66;;;-0.93;74.81
1480;BME280;732;51.698;4.886;2023-04-26T01:49:44;102115.13;;;-0.89;74.65
1480;BME280;732;51.698;4.886;2023-04-26T01:52:12;102099.22;;;-1.05;74.50
1480;BME280;732;51.698;4.886;2023-04-26T01:54:41;102117.03;;;-0.93;74.33
1480;BME280;732;51.698;4.886;2023-04-26T01:57:09;102080.91;;;-1.26;74.45
1480;BME280;732;51.698;4.886;2023-04-26T01:59:39;102114.25;;;-1.07;75.12
1480;BME280;732;51.698;4.886;2023-04-26T02:02:07;102089.94;;;-1.12;74.35
1480;BME280;732;51.698;4.886;2023-04-26T02:04:37;102115.50;;;-0.97;74.27
1480;BME280;732;51.698;4.886;2023-04-26T02:07:05;102086.94;;;-1.23;74.26
1480;BME280;732;51.698;4.886;2023-04-26T02:09:33;102110.59;;;-1.22;74.75
1480;BME280;732;51.698;4.886;2023-04-26T02:12:02;102130.06;;;-1.07;74.10
1480;BME280;732;51.698;4.886;2023-04-26T02:14:30;102094.91;;;-1.25;74.31
1480;BME280;732;51.698;4.886;2023-04-26T02:17:00;102120.44;;;-1.08;74.63
1480;BME280;732;51.698;4.886;2023-04-26T02:19:28;102118.03;;;-1.13;74.15
1480;BME280;732;51.698;4.886;2023-04-26T02:21:58;102121.47;;;-1.30;74.45
1480;BME280;732;51.698;4.886;2023-04-26T02:24:26;102121.53;;;-1.31;74.72
1480;BME280;732;51.698;4.886;2023-04-26T02:26:54;102122.34;;;-1.29;74.67
1480;BME280;732;51.698;4.886;2023-04-26T02:29:26;102106.63;;;-1.31;74.44
1480;BME280;732;51.698;4.886;2023-04-26T02:32:11;102107.34;;;-1.27;74.59
1480;BME280;732;51.698;4.886;2023-04-26T02:34:40;102114.22;;;-1.25;74.91
1480;BME280;732;51.698;4.886;2023-04-26T02:37:08;102105.34;;;-1.41;74.97
1480;BME280;732;51.698;4.886;2023-04-26T02:39:40;102118.50;;;-1.41;75.49
1480;BME280;732;51.698;4.886;2023-04-26T02:42:08;102083.66;;;-1.65;75.62
1480;BME280;732;51.698;4.886;2023-04-26T02:44:37;102110.97;;;-1.49;76.21
1480;BME280;732;51.698;4.886;2023-04-26T02:47:06;102091.84;;;-1.52;76.09
1480;BME280;732;51.698;4.886;2023-04-26T02:49:36;102107.66;;;-1.35;75.49
1480;BME280;732;51.698;4.886;2023-04-26T02:52:04;102102.34;;;-1.33;75.08
1480;BME280;732;51.698;4.886;2023-04-26T02:54:32;102097.88;;;-1.50;75.03
1480;BME280;732;51.698;4.886;2023-04-26T02:57:01;102093.47;;;-1.50;75.67
1480;BME280;732;51.698;4.886;2023-04-26T02:59:29;102101.22;;;-1.47;75.80
1480;BME280;732;51.698;4.886;2023-04-26T03:01:58;102099.84;;;-1.36;75.56
1480;BME280;732;51.698;4.886;2023-04-26T03:04:26;102103.19;;;-1.33;74.76
1480;BME280;732;51.698;4.886;2023-04-26T03:06:57;102102.28;;;-1.32;74.44
1480;BME280;732;51.698;4.886;2023-04-26T03:09:25;102111.25;;;-1.36;74.30
1480;BME280;732;51.698;4.886;2023-04-26T03:11:53;102099.16;;;-1.40;74.89
1480;BME280;732;51.698;4.886;2023-04-26T03:14:22;102096.03;;;-1.48;74.27
1480;BME280;732;51.698;4.886;2023-04-26T03:16:50;102097.81;;;-1.49;74.31
1480;BME280;732;51.698;4.886;2023-04-26T03:19:19;102098.00;;;-1.53;74.53
1480;BME280;732;51.698;4.886;2023-04-26T03:21:47;102105.91;;;-1.53;74.77
1480;BME280;732;51.698;4.886;2023-04-26T03:24:17;102101.59;;;-1.54;74.95
1480;BME280;732;51.698;4.886;2023-04-26T03:26:46;102074.50;;;-1.76;74.70
1480;BME280;732;51.698;4.886;2023-04-26T03:29:14;102094.56;;;-1.73;74.77
1480;BME280;732;51.698;4.886;2023-04-26T03:31:43;102063.56;;;-1.85;75.32
1480;BME280;732;51.698;4.886;2023-04-26T03:34:11;102098.47;;;-1.63;74.91
1480;BME280;732;51.698;4.886;2023-04-26T03:36:39;102086.22;;;-1.64;74.58
1480;BME280;732;51.698;4.886;2023-04-26T03:39:08;102094.31;;;-1.68;74.50
1480;BME280;732;51.698;4.886;2023-04-26T03:41:38;102097.13;;;-1.71;74.70
1480;BME280;732;51.698;4.886;2023-04-26T03:44:09;102072.50;;;-1.90;74.51
1480;BME280;732;51.698;4.886;2023-04-26T03:46:38;102095.88;;;-1.83;75.16
1480;BME280;732;51.698;4.886;2023-04-26T03:49:07;102087.78;;;-1.98;75.61
1480;BME280;732;51.698;4.886;2023-04-26T03:51:35;102101.78;;;-1.97;76.04
1480;BME280;732;51.698;4.886;2023-04-26T03:54:04;102081.03;;;-2.03;76.19
1480;BME280;732;51.698;4.886;2023-04-26T03:56:32;102092.84;;;-1.93;76.22
1480;BME280;732;51.698;4.886;2023-04-26T03:59:02;102078.63;;;-1.89;75.98
1480;BME280;732;51.698;4.886;2023-04-26T04:01:31;102082.72;;;-1.83;75.93
1480;BME280;732;51.698;4.886;2023-04-26T04:03:59;102073.50;;;-1.92;76.18
1480;BME280;732;51.698;4.886;2023-04-26T04:06:28;102091.63;;;-1.86;76.70
1480;BME280;732;51.698;4.886;2023-04-26T04:08:57;102083.81;;;-1.87;76.66
1480;BME280;732;51.698;4.886;2023-04-26T04:11:26;102083.81;;;-1.87;76.56
1480;BME280;732;51.698;4.886;2023-04-26T04:13:55;102081.25;;;-1.89;76.70
1480;BME280;732;51.698;4.886;2023-04-26T04:16:24;102084.31;;;-1.79;76.78
1480;BME280;732;51.698;4.886;2023-04-26T04:18:53;102085.66;;;-1.70;76.22
1480;BME280;732;51.698;4.886;2023-04-26T04:21:21;102075.44;;;-1.77;75.97
1480;BME280;732;51.698;4.886;2023-04-26T04:23:49;102094.13;;;-1.64;75.78
1480;BME280;732;51.698;4.886;2023-04-26T04:26:19;102095.75;;;-1.61;75.47
1480;BME280;732;51.698;4.886;2023-04-26T04:28:48;102097.19;;;-1.54;76.41
1480;BME280;732;51.698;4.886;2023-04-26T04:31:19;102099.31;;;-1.43;77.18
1480;BME280;732;51.698;4.886;2023-04-26T04:33:48;102098.00;;;-1.34;77.64
1480;BME280;732;51.698;4.886;2023-04-26T04:36:17;102077.09;;;-1.37;77.59
1480;BME280;732;51.698;4.886;2023-04-26T04:38:45;102101.63;;;-1.00;76.91
1480;BME280;732;51.698;4.886;2023-04-26T04:41:15;102067.84;;;-1.10;76.23
1480;BME280;732;51.698;4.886;2023-04-26T04:43:44;102058.06;;;-1.08;75.92
1480;BME280;732;51.698;4.886;2023-04-26T04:46:13;102104.88;;;-0.78;76.56
1480;BME280;732;51.698;4.886;2023-04-26T04:48:41;102066.94;;;-0.91;77.22
1480;BME280;732;51.698;4.886;2023-04-26T04:51:11;102079.84;;;-0.69;77.01
1480;BME280;732;51.698;4.886;2023-04-26T04:53:40;102099.25;;;-0.52;76.87
1480;BME280;732;51.698;4.886;2023-04-26T04:56:08;102105.34;;;-0.34;76.62
1480;BME280;732;51.698;4.886;2023-04-26T04:58:37;102086.78;;;-0.33;76.07
1480;BME280;732;51.698;4.886;2023-04-26T05:01:06;102100.56;;;-0.10;76.08
1480;BME280;732;51.698;4.886;2023-04-26T05:03:45;102098.97;;;0.03;76.27
1480;BME280;732;51.698;4.886;2023-04-26T05:06:15;102094.97;;;0.12;75.30
1480;BME280;732;51.698;4.886;2023-04-26T05:08:43;102109.22;;;0.42;76.39
1480;BME280;732;51.698;4.886;2023-04-26T05:11:12;102106.94;;;0.67;74.87
1480;BME280;732;51.698;4.886;2023-04-26T05:13:40;102106.47;;;0.91;74.77
1480;BME280;732;51.698;4.886;2023-04-26T05:16:09;102112.66;;;1.06;73.98
1480;BME280;732;51.698;4.886;2023-04-26T05:18:38;102100.91;;;1.26;74.25
1480;BME280;732;51.698;4.886;2023-04-26T05:21:07;102095.00;;;1.37;73.86
1480;BME280;732;51.698;4.886;2023-04-26T05:23:37;102100.97;;;1.55;73.54
1480;BME280;732;51.698;4.886;2023-04-26T05:26:06;102066.97;;;1.49;73.20
1480;BME280;732;51.698;4.886;2023-04-26T05:28:53;102109.22;;;1.94;73.31
1480;BME280;732;51.698;4.886;2023-04-26T05:31:30;102115.00;;;2.15;72.77
1480;BME280;732;51.698;4.886;2023-04-26T05:34:18;102104.25;;;2.18;73.33
1480;BME280;732;51.698;4.886;2023-04-26T05:36:50;102096.09;;;2.21;73.69
1480;BME280;732;51.698;4.886;2023-04-26T05:39:20;102118.56;;;2.43;73.65
1480;BME280;732;51.698;4.886;2023-04-26T05:41:48;102117.50;;;2.60;73.40
1480;BME280;732;51.698;4.886;2023-04-26T05:44:17;102090.63;;;2.52;73.41
1480;BME280;732;51.698;4.886;2023-04-26T05:46:45;102110.31;;;2.89;73.78
1480;BME280;732;51.698;4.886;2023-04-26T05:49:14;102094.56;;;3.13;72.97
1480;BME280;732;51.698;4.886;2023-04-26T05:51:46;102125.91;;;3.60;70.77
1480;BME280;732;51.698;4.886;2023-04-26T05:54:16;102109.56;;;3.66;69.96
1480;BME280;732;51.698;4.886;2023-04-26T05:56:46;102078.06;;;3.61;69.09
1480;BME280;732;51.698;4.886;2023-04-26T05:59:14;102121.91;;;3.93;68.76
1480;BME280;732;51.698;4.886;2023-04-26T06:01:43;102121.91;;;3.93;69.02
1480;BME280;732;51.698;4.886;2023-04-26T06:04:11;102120.44;;;3.89;69.52
1480;BME280;732;51.698;4.886;2023-04-26T06:07:01;102113.09;;;3.80;69.53
1480;BME280;732;51.698;4.886;2023-04-26T06:09:30;102121.16;;;3.78;69.12
1480;BME280;732;51.698;4.886;2023-04-26T06:12:00;102112.66;;;3.60;68.29
1480;BME280;732;51.698;4.886;2023-04-26T06:14:32;102133.81;;;3.61;68.61
1480;BME280;732;51.698;4.886;2023-04-26T06:17:04;102134.13;;;3.83;69.29
1480;BME280;732;51.698;4.886;2023-04-26T06:19:33;102131.88;;;4.02;68.38
1480;BME280;732;51.698;4.886;2023-04-26T06:22:01;102140.47;;;4.19;68.64
1480;BME280;732;51.698;4.886;2023-04-26T06:24:29;102145.00;;;4.30;67.32
1480;BME280;732;51.698;4.886;2023-04-26T06:26:59;102142.88;;;4.48;66.61
1480;BME280;732;51.698;4.886;2023-04-26T06:29:32;102132.03;;;4.38;66.75
1480;BME280;732;51.698;4.886;2023-04-26T06:32:00;102136.50;;;4.37;64.85
1480;BME280;732;51.698;4.886;2023-04-26T06:34:28;102160.19;;;4.53;64.72
1480;BME280;732;51.698;4.886;2023-04-26T06:36:57;102159.97;;;4.43;63.71
1480;BME280;732;51.698;4.886;2023-04-26T06:39:29;102147.22;;;4.36;63.81
1480;BME280;732;51.698;4.886;2023-04-26T06:41:57;102143.94;;;4.45;63.75
1480;BME280;732;51.698;4.886;2023-04-26T06:44:48;102149.41;;;4.68;63.01
1480;BME280;732;51.698;4.886;2023-04-26T06:47:16;102155.31;;;4.84;62.76
1480;BME280;732;51.698;4.886;2023-04-26T06:49:44;102146.31;;;4.98;62.67
1480;BME280;732;51.698;4.886;2023-04-26T06:52:13;102146.69;;;5.29;62.77
1480;BME280;732;51.698;4.886;2023-04-26T06:54:41;102144.25;;;5.26;61.63
1480;BME280;732;51.698;4.886;2023-04-26T06:57:22;102148.53;;;5.40;61.46
1480;BME280;732;51.698;4.886;2023-04-26T06:59:52;102115.97;;;5.36;61.43
1480;BME280;732;51.698;4.886;2023-04-26T07:02:20;102147.22;;;5.46;59.77
1480;BME280;732;51.698;4.886;2023-04-26T07:04:51;102101.56;;;5.28;59.88
1480;BME280;732;51.698;4.886;2023-04-26T07:07:19;102102.56;;;5.38;58.71
1480;BME280;732;51.698;4.886;2023-04-26T07:09:48;102142.31;;;5.75;58.15
1480;BME280;732;51.698;4.886;2023-04-26T07:12:16;102119.09;;;5.66;57.71
1480;BME280;732;51.698;4.886;2023-04-26T07:14:44;102147.56;;;5.99;56.40
1480;BME280;732;51.698;4.886;2023-04-26T07:17:14;102149.13;;;6.02;56.64
1480;BME280;732;51.698;4.886;2023-04-26T07:19:42;102130.22;;;6.05;56.18
1480;BME280;732;51.698;4.886;2023-04-26T07:22:10;102146.59;;;6.34;56.55
1480;BME280;732;51.698;4.886;2023-04-26T07:24:39;102148.53;;;6.44;56.42
1480;BME280;732;51.698;4.886;2023-04-26T07:27:07;102141.75;;;6.40;55.90
1480;BME280;732;51.698;4.886;2023-04-26T07:29:35;102110.97;;;6.35;56.16
1480;BME280;732;51.698;4.886;2023-04-26T07:32:04;102140.63;;;6.65;55.87
1480;BME280;732;51.698;4.886;2023-04-26T07:34:34;102142.63;;;6.84;56.29
1480;BME280;732;51.698;4.886;2023-04-26T21:40:10;102171.75;;;2.11;65.66
1480;BME280;732;51.698;4.886;2023-04-26T21:42:39;102070.91;;;1.42;66.03
1480;BME280;732;51.698;4.886;2023-04-26T21:45:17;102121.41;;;1.67;66.94
1480;BME280;732;51.698;4.886;2023-04-26T21:47:45;102092.28;;;1.53;67.06
1480;BME280;732;51.698;4.886;2023-04-26T21:50:14;102041.25;;;1.22;66.87
1480;BME280;732;51.698;4.886;2023-04-26T21:52:42;102075.25;;;1.43;66.43
1480;BME280;732;51.698;4.886;2023-04-26T21:55:11;102186.31;;;2.04;66.04
1480;BME280;732;51.698;4.886;2023-04-26T21:57:40;102036.28;;;1.01;66.68
1480;BME280;732;51.698;4.886;2023-04-26T22:00:09;102005.50;;;0.86;67.20
1480;BME280;732;51.698;4.886;2023-04-26T22:02:44;102029.91;;;0.90;67.40
1480;BME280;732;51.698;4.886;2023-04-26T22:05:13;102171.31;;;1.74;67.24
1480;BME280;732;51.698;4.886;2023-04-26T22:07:42;102031.13;;;0.84;66.73
1480;BME280;732;51.698;4.886;2023-04-26T22:10:12;101941.78;;;0.30;66.96
1480;BME280;732;51.698;4.886;2023-04-26T22:12:45;102052.41;;;0.97;67.01
1480;BME280;732;51.698;4.886;2023-04-26T22:15:13;102121.72;;;1.32;66.48
1480;BME280;732;51.698;4.886;2023-04-26T22:17:41;102145.88;;;1.41;66.87
1480;BME280;732;51.698;4.886;2023-04-26T22:20:13;102153.00;;;1.40;66.43
1480;BME280;732;51.698;4.886;2023-04-26T22:22:42;102174.38;;;1.51;66.22
1480;BME280;732;51.698;4.886;2023-04-26T22:25:11;102192.78;;;1.53;67.29
1480;BME280;732;51.698;4.886;2023-04-26T22:27:39;102105.94;;;0.84;67.66
1480;BME280;732;51.698;4.886;2023-04-26T22:30:08;102157.16;;;1.14;67.97
1480;BME280;732;51.698;4.886;2023-04-26T22:32:51;102187.97;;;1.29;67.78
1480;BME280;732;51.698;4.886;2023-04-26T22:35:21;102078.38;;;0.58;67.75
1480;BME280;732;51.698;4.886;2023-04-26T22:37:50;102001.50;;;0.00;67.02
1480;BME280;732;51.698;4.886;2023-04-26T22:40:24;102196.25;;;1.23;68.59
1480;BME280;732;51.698;4.886;2023-04-26T22:42:54;102119.25;;;0.67;68.62
1480;BME280;732;51.698;4.886;2023-04-26T22:45:23;102070.75;;;0.37;67.82
1480;BME280;732;51.698;4.886;2023-04-26T22:47:51;102164.06;;;1.00;68.15
1480;BME280;732;51.698;4.886;2023-04-26T22:50:20;102102.16;;;0.58;68.30
1480;BME280;732;51.698;4.886;2023-04-26T22:52:49;102191.84;;;1.08;67.94
1480;BME280;732;51.698;4.886;2023-04-26T22:55:17;102179.78;;;0.88;68.25
1480;BME280;732;51.698;4.886;2023-04-26T22:57:51;102196.31;;;0.91;67.85
1480;BME280;732;51.698;4.886;2023-04-26T23:00:20;102216.44;;;0.94;68.16
1480;BME280;732;51.698;4.886;2023-04-26T23:02:51;102198.69;;;0.80;68.47
1480;BME280;732;51.698;4.886;2023-04-26T23:05:19;102165.28;;;0.47;69.09
1480;BME280;732;51.698;4.886;2023-04-26T23:07:47;102219.50;;;0.70;69.38
1480;BME280;732;51.698;4.886;2023-04-26T23:10:16;102162.69;;;0.29;69.71
1480;BME280;732;51.698;4.886;2023-04-26T23:12:48;102183.31;;;0.38;69.85
1480;BME280;732;51.698;4.886;2023-04-26T23:15:18;102076.69;;;-0.24;69.83
1480;BME280;732;51.698;4.886;2023-04-26T23:17:49;102220.50;;;0.67;69.11
1480;BME280;732;51.698;4.886;2023-04-26T23:20:17;102134.56;;;0.12;69.64
1480;BME280;732;51.698;4.886;2023-04-26T23:22:45;102090.13;;;-0.29;69.10
1480;BME280;732;51.698;4.886;2023-04-26T23:25:14;102087.19;;;-0.40;69.43
1480;BME280;732;51.698;4.886;2023-04-26T23:27:43;102039.28;;;-0.82;69.39
1480;BME280;732;51.698;4.886;2023-04-26T23:30:13;102158.44;;;-0.07;69.49
1480;BME280;732;51.698;4.886;2023-04-26T23:32:43;102073.56;;;-0.66;69.76
1480;BME280;732;51.698;4.886;2023-04-26T23:35:17;102018.44;;;-1.04;70.42
1480;BME280;732;51.698;4.886;2023-04-26T23:37:46;102229.53;;;0.30;70.20
1480;BME280;732;51.698;4.886;2023-04-26T23:40:14;102053.59;;;-0.88;70.20
1480;BME280;732;51.698;4.886;2023-04-26T23:42:43;102109.78;;;-0.52;70.25
1480;BME280;732;51.698;4.886;2023-04-26T23:45:12;102230.63;;;0.26;70.17
1480;BME280;732;51.698;4.886;2023-04-26T23:47:41;101986.13;;;-1.26;69.59
1480;BME280;732;51.698;4.886;2023-04-26T23:50:10;102243.03;;;0.24;69.53
1480;BME280;732;51.698;4.886;2023-04-26T23:52:39;102171.13;;;-0.31;69.85
1480;BME280;732;51.698;4.886;2023-04-26T23:55:08;102077.22;;;-0.86;69.61
1480;BME280;732;51.698;4.886;2023-04-26T23:57:37;102095.66;;;-0.86;69.70
